sensor_id;sensor_type;location;lat;lon;timestamp;pressure;altitude;pressure_sealevel;temperature;humidity
3960;BME280;1994;48.640;8.894;2022-12-15T00:01:20;94805.19;;;-0.64;93.74
3960;BME280;1994;48.640;8.894;2022-12-15T00:04:05;94802.41;;;-0.56;94.11
3960;BME280;1994;48.640;8.894;2022-12-15T00:06:49;94821.22;;;-0.57;93.55
3960;BME280;1994;48.640;8.894;2022-12-15T00:09:34;94824.16;;;-0.66;93.05
3960;BME280;1994;48.640;8.894;2022-12-15T00:12:19;94817.47;;;-0.61;93.24
3960;BME280;1994;48.640;8.894;2022-12-15T00:15:04;94822.00;;;-0.63;93.28
3960;BME280;1994;48.640;8.894;2022-12-15T00:17:49;94816.13;;;-0.57;92.98
3960;BME280;1994;48.640;8.894;2022-12-15T00:20:33;94814.97;;;-0.67;93.20
3960;BME280;1994;48.640;8.894;2022-12-15T00:23:18;94811.25;;;-0.65;93.03
3960;BME280;1994;48.640;8.894;2022-12-15T00:26:03;94812.41;;;-0.61;93.05
3960;BME280;1994;48.640;8.894;2022-12-15T00:28:47;94827.09;;;-0.63;93.04
3960;BME280;1994;48.640;8.894;2022-12-15T00:31:31;94829.81;;;-0.71;93.62
3960;BME280;1994;48.640;8.894;2022-12-15T00:34:16;94825.53;;;-0.64;93.32
3960;BME280;1994;48.640;8.894;2022-12-15T00:37:00;94833.75;;;-0.75;93.97
3960;BME280;1994;48.640;8.894;2022-12-15T00:39:45;94841.34;;;-0.75;94.42
3960;BME280;1994;48.640;8.894;2022-12-15T00:42:11;94852.88;;;-0.66;94.30
3960;BME280;1994;48.640;8.894;2022-12-15T00:44:37;94853.09;;;-0.61;94.24
3960;BME280;1994;48.640;8.894;2022-12-15T00:47:04;94847.41;;;-0.69;94.48
3960;BME280;1994;48.640;8.894;2022-12-15T00:49:30;94857.78;;;-0.71;94.49
3960;BME280;1994;48.640;8.894;2022-12-15T00:52:17;94849.38;;;-0.65;94.74
3960;BME280;1994;48.640;8.894;2022-12-15T00:55:03;94856.03;;;-0.64;94.91
3960;BME280;1994;48.640;8.894;2022-12-15T00:57:47;94848.59;;;-0.59;94.77
3960;BME280;1994;48.640;8.894;2022-12-15T01:00:33;94861.88;;;-0.57;94.76
3960;BME280;1994;48.640;8.894;2022-12-15T01:03:21;94860.13;;;-0.63;94.76
3960;BME280;1994;48.640;8.894;2022-12-15T01:06:10;94864.81;;;-0.60;95.01
3960;BME280;1994;48.640;8.894;2022-12-15T01:08:56;94865.41;;;-0.58;94.81
3960;BME280;1994;48.640;8.894;2022-12-15T01:11:41;94877.94;;;-0.56;94.88
3960;BME280;1994;48.640;8.894;2022-12-15T01:14:27;94869.72;;;-0.52;94.45
3960;BME280;1994;48.640;8.894;2022-12-15T01:17:13;94875.78;;;-0.53;95.03
3960;BME280;1994;48.640;8.894;2022-12-15T01:19:57;94873.63;;;-0.49;95.19
3960;BME280;1994;48.640;8.894;2022-12-15T01:22:52;94870.91;;;-0.48;95.00
3960;BME280;1994;48.640;8.894;2022-12-15T01:25:21;94883.03;;;-0.43;94.92
3960;BME280;1994;48.640;8.894;2022-12-15T01:27:48;94871.69;;;-0.54;95.10
3960;BME280;1994;48.640;8.894;2022-12-15T01:30:19;94868.13;;;-0.66;95.14
3960;BME280;1994;48.640;8.894;2022-12-15T01:32:45;94881.84;;;-0.67;94.98
3960;BME280;1994;48.640;8.894;2022-12-15T01:35:12;94875.56;;;-0.64;94.29
3960;BME280;1994;48.640;8.894;2022-12-15T01:37:38;94875.78;;;-0.59;94.63
3960;BME280;1994;48.640;8.894;2022-12-15T01:40:06;94876.97;;;-0.55;94.19
3960;BME280;1994;48.640;8.894;2022-12-15T01:42:51;94878.53;;;-0.48;94.25
3960;BME280;1994;48.640;8.894;2022-12-15T01:47:51;94874.44;;;-0.49;94.57
3960;BME280;1994;48.640;8.894;2022-12-15T01:50:18;94876.19;;;-0.43;94.67
3960;BME280;1994;48.640;8.894;2022-12-15T01:52:46;94880.28;;;-0.42;94.73
3960;BME280;1994;48.640;8.894;2022-12-15T01:55:12;94881.28;;;-0.43;94.91
3960;BME280;1994;48.640;8.894;2022-12-15T01:57:40;94877.13;;;-0.44;94.47
3960;BME280;1994;48.640;8.894;2022-12-15T02:00:07;94878.72;;;-0.43;94.37
3960;BME280;1994;48.640;8.894;2022-12-15T02:02:35;94891.63;;;-0.38;94.45
3960;BME280;1994;48.640;8.894;2022-12-15T02:05:04;94892.22;;;-0.36;94.54
3960;BME280;1994;48.640;8.894;2022-12-15T02:07:30;94894.38;;;-0.46;94.15
3960;BME280;1994;48.640;8.894;2022-12-15T02:10:00;94898.28;;;-0.50;94.66
3960;BME280;1994;48.640;8.894;2022-12-15T02:16:05;94909.25;;;-0.43;94.25
3960;BME280;1994;48.640;8.894;2022-12-15T02:18:49;94906.47;;;-0.42;94.03
3960;BME280;1994;48.640;8.894;2022-12-15T02:21:28;94899.44;;;-0.46;94.22
3960;BME280;1994;48.640;8.894;2022-12-15T02:35:36;94917.47;;;-0.41;94.76
3960;BME280;1994;48.640;8.894;2022-12-15T02:38:08;94908.84;;;-0.40;94.89
3960;BME280;1994;48.640;8.894;2022-12-15T02:40:35;94901.22;;;-0.40;95.03
3960;BME280;1994;48.640;8.894;2022-12-15T02:43:04;94900.22;;;-0.39;94.83
3960;BME280;1994;48.640;8.894;2022-12-15T02:49:08;94901.03;;;-0.38;94.90
3960;BME280;1994;48.640;8.894;2022-12-15T03:00:14;94905.50;;;-0.34;94.66
3960;BME280;1994;48.640;8.894;2022-12-15T03:02:46;94913.13;;;-0.34;94.34
3960;BME280;1994;48.640;8.894;2022-12-15T03:05:13;94910.78;;;-0.36;93.99
3960;BME280;1994;48.640;8.894;2022-12-15T03:07:40;94912.75;;;-0.31;94.47
3960;BME280;1994;48.640;8.894;2022-12-15T03:10:09;94920.59;;;-0.32;94.35
3960;BME280;1994;48.640;8.894;2022-12-15T03:12:36;94920.59;;;-0.32;94.38
3960;BME280;1994;48.640;8.894;2022-12-15T03:15:02;94931.94;;;-0.35;94.22
3960;BME280;1994;48.640;8.894;2022-12-15T03:18:00;94936.63;;;-0.32;94.08
3960;BME280;1994;48.640;8.894;2022-12-15T03:20:58;94928.78;;;-0.50;93.82
3960;BME280;1994;48.640;8.894;2022-12-15T03:23:56;94944.63;;;-0.42;94.13
3960;BME280;1994;48.640;8.894;2022-12-15T03:26:54;94935.84;;;-0.39;94.10
3960;BME280;1994;48.640;8.894;2022-12-15T03:29:52;94939.78;;;-0.43;93.99
3960;BME280;1994;48.640;8.894;2022-12-15T03:32:50;94944.44;;;-0.40;94.52
3960;BME280;1994;48.640;8.894;2022-12-15T07:20:11;95020.38;;;-0.37;94.68
3960;BME280;1994;48.640;8.894;2022-12-15T07:22:37;95016.69;;;-0.34;94.92
3960;BME280;1994;48.640;8.894;2022-12-15T07:25:03;95025.06;;;-0.34;94.53
3960;BME280;1994;48.640;8.894;2022-12-15T07:27:29;95019.97;;;-0.34;94.68
3960;BME280;1994;48.640;8.894;2022-12-15T07:29:54;95019.59;;;-0.31;94.78
3960;BME280;1994;48.640;8.894;2022-12-15T07:32:20;95012.56;;;-0.29;94.03
3960;BME280;1994;48.640;8.894;2022-12-15T07:34:46;95025.47;;;-0.24;94.56
3960;BME280;1994;48.640;8.894;2022-12-15T07:37:11;95027.03;;;-0.23;93.93
3960;BME280;1994;48.640;8.894;2022-12-15T07:39:37;95033.69;;;-0.35;93.65
3960;BME280;1994;48.640;8.894;2022-12-15T07:42:03;95024.28;;;-0.41;93.50
3960;BME280;1994;48.640;8.894;2022-12-15T07:44:29;95029.38;;;-0.28;93.73
3960;BME280;1994;48.640;8.894;2022-12-15T07:46:56;95037.63;;;-0.26;93.71
3960;BME280;1994;48.640;8.894;2022-12-15T07:49:22;95047.41;;;-0.23;93.38
3960;BME280;1994;48.640;8.894;2022-12-15T07:51:48;95048.59;;;-0.19;93.30
3960;BME280;1994;48.640;8.894;2022-12-15T07:54:19;95058.34;;;-0.29;93.33
3960;BME280;1994;48.640;8.894;2022-12-15T07:56:45;95062.47;;;-0.28;93.85
3960;BME280;1994;48.640;8.894;2022-12-15T07:59:11;95076.75;;;-0.21;93.81
3960;BME280;1994;48.640;8.894;2022-12-15T08:01:37;95069.72;;;-0.12;93.60
3960;BME280;1994;48.640;8.894;2022-12-15T08:04:03;95065.81;;;-0.21;93.16
3960;BME280;1994;48.640;8.894;2022-12-15T08:06:28;95074.38;;;-0.35;93.39
3960;BME280;1994;48.640;8.894;2022-12-15T08:08:54;95076.50;;;-0.45;93.98
3960;BME280;1994;48.640;8.894;2022-12-15T08:11:21;95074.78;;;-0.38;93.72
3960;BME280;1994;48.640;8.894;2022-12-15T08:13:49;95079.03;;;-0.45;94.18
3960;BME280;1994;48.640;8.894;2022-12-15T08:16:15;95075.56;;;-0.31;93.86
3960;BME280;1994;48.640;8.894;2022-12-15T08:18:40;95070.09;;;-0.28;93.71
3960;BME280;1994;48.640;8.894;2022-12-15T08:21:08;95092.03;;;-0.27;93.48
3960;BME280;1994;48.640;8.894;2022-12-15T08:23:36;95078.34;;;-0.26;93.07
3960;BME280;1994;48.640;8.894;2022-12-15T08:26:12;95076.00;;;-0.21;93.04
3960;BME280;1994;48.640;8.894;2022-12-15T08:28:40;95076.00;;;-0.21;92.99
3960;BME280;1994;48.640;8.894;2022-12-15T08:31:19;95083.84;;;-0.16;92.98
3960;BME280;1994;48.640;8.894;2022-12-15T08:33:46;95072.06;;;-0.17;92.73
3960;BME280;1994;48.640;8.894;2022-12-15T08:36:16;95068.94;;;-0.06;92.51
3960;BME280;1994;48.640;8.894;2022-12-15T08:38:44;95068.94;;;-0.06;91.99
3960;BME280;1994;48.640;8.894;2022-12-15T08:41:22;95074.47;;;0.10;92.50
3960;BME280;1994;48.640;8.894;2022-12-15T08:43:49;95076.44;;;0.15;91.75
3960;BME280;1994;48.640;8.894;2022-12-15T08:46:18;95089.16;;;0.02;92.17
3960;BME280;1994;48.640;8.894;2022-12-15T08:48:45;95087.75;;;-0.07;92.31
3960;BME280;1994;48.640;8.894;2022-12-15T08:51:12;95092.44;;;-0.11;92.37
3960;BME280;1994;48.640;8.894;2022-12-15T08:53:38;95097.16;;;-0.01;91.99
3960;BME280;1994;48.640;8.894;2022-12-15T08:56:09;95104.22;;;0.10;91.99
3960;BME280;1994;48.640;8.894;2022-12-15T08:58:37;95088.56;;;0.13;91.21
3960;BME280;1994;48.640;8.894;2022-12-15T09:01:06;95088.97;;;0.23;91.95
3960;BME280;1994;48.640;8.894;2022-12-15T09:03:36;95079.94;;;0.27;91.58
3960;BME280;1994;48.640;8.894;2022-12-15T09:06:09;95083.88;;;0.23;91.38
3960;BME280;1994;48.640;8.894;2022-12-15T09:08:36;95077.59;;;0.19;91.55
3960;BME280;1994;48.640;8.894;2022-12-15T09:11:02;95078.41;;;0.13;91.71
3960;BME280;1994;48.640;8.894;2022-12-15T09:13:30;95078.78;;;0.36;91.73
3960;BME280;1994;48.640;8.894;2022-12-15T09:16:01;95086.63;;;0.41;90.78
3960;BME280;1994;48.640;8.894;2022-12-15T09:18:28;95083.31;;;0.53;90.36
3960;BME280;1994;48.640;8.894;2022-12-15T09:20:54;95077.59;;;0.71;90.08
3960;BME280;1994;48.640;8.894;2022-12-15T09:23:20;95076.81;;;0.77;89.32
3960;BME280;1994;48.640;8.894;2022-12-15T09:25:46;95059.91;;;0.95;89.52
3960;BME280;1994;48.640;8.894;2022-12-15T09:28:13;95072.00;;;1.13;89.03
3960;BME280;1994;48.640;8.894;2022-12-15T09:30:40;95082.22;;;1.13;88.38
3960;BME280;1994;48.640;8.894;2022-12-15T09:33:05;95093.63;;;1.04;88.72
3960;BME280;1994;48.640;8.894;2022-12-15T09:35:31;95101.44;;;1.15;87.74
3960;BME280;1994;48.640;8.894;2022-12-15T09:37:57;95114.94;;;1.22;87.41
3960;BME280;1994;48.640;8.894;2022-12-15T09:40:24;95113.56;;;1.26;87.60
3960;BME280;1994;48.640;8.894;2022-12-15T09:42:54;95108.88;;;1.17;87.67
3960;BME280;1994;48.640;8.894;2022-12-15T09:45:25;95103.03;;;1.10;87.86
3960;BME280;1994;48.640;8.894;2022-12-15T09:47:59;95097.19;;;0.64;89.03
3960;BME280;1994;48.640;8.894;2022-12-15T09:50:35;95088.38;;;0.73;90.01
3960;BME280;1994;48.640;8.894;2022-12-15T09:53:01;95089.38;;;0.72;90.32
3960;BME280;1994;48.640;8.894;2022-12-15T09:55:31;95085.06;;;0.53;91.21
3960;BME280;1994;48.640;8.894;2022-12-15T10:00:53;95087.81;;;0.71;91.06
3960;BME280;1994;48.640;8.894;2022-12-15T10:06:16;95092.88;;;0.90;91.16
3960;BME280;1994;48.640;8.894;2022-12-15T10:08:59;95089.91;;;1.00;90.96
3960;BME280;1994;48.640;8.894;2022-12-15T10:11:48;95090.50;;;0.89;90.64
3960;BME280;1994;48.640;8.894;2022-12-15T10:15:05;95088.56;;;0.78;90.10
3960;BME280;1994;48.640;8.894;2022-12-15T10:20:28;95074.81;;;0.92;91.27
3960;BME280;1994;48.640;8.894;2022-12-15T10:23:00;95082.81;;;1.02;90.90
3960;BME280;1994;48.640;8.894;2022-12-15T10:25:29;95079.47;;;1.08;91.29
3960;BME280;1994;48.640;8.894;2022-12-15T10:31:12;95059.00;;;1.34;90.74
3960;BME280;1994;48.640;8.894;2022-12-15T10:33:41;95066.66;;;1.34;90.61
3960;BME280;1994;48.640;8.894;2022-12-15T10:36:11;95065.66;;;1.35;90.05
3960;BME280;1994;48.640;8.894;2022-12-15T10:38:43;95072.38;;;1.23;89.88
3960;BME280;1994;48.640;8.894;2022-12-15T10:41:15;95066.53;;;1.16;89.99
3960;BME280;1994;48.640;8.894;2022-12-15T10:43:45;95066.16;;;1.06;90.37
3960;BME280;1994;48.640;8.894;2022-12-15T10:49:08;95068.88;;;1.17;90.44
3960;BME280;1994;48.640;8.894;2022-12-15T10:51:52;95058.28;;;1.14;90.38
3960;BME280;1994;48.640;8.894;2022-12-15T10:54:20;95052.41;;;1.20;90.38
3960;BME280;1994;48.640;8.894;2022-12-15T10:56:50;95052.03;;;1.10;90.44
3960;BME280;1994;48.640;8.894;2022-12-15T10:59:32;95059.44;;;1.11;91.08
3960;BME280;1994;48.640;8.894;2022-12-15T11:07:49;95045.66;;;1.32;90.60
3960;BME280;1994;48.640;8.894;2022-12-15T11:15:46;95037.00;;;1.39;90.45
3960;BME280;1994;48.640;8.894;2022-12-15T11:21:38;95031.34;;;1.31;90.32
3960;BME280;1994;48.640;8.894;2022-12-15T11:24:19;95032.28;;;1.43;90.36
3960;BME280;1994;48.640;8.894;2022-12-15T11:29:44;95019.69;;;1.48;90.13
3960;BME280;1994;48.640;8.894;2022-12-15T11:32:13;95025.19;;;1.45;90.42
3960;BME280;1994;48.640;8.894;2022-12-15T11:34:45;95012.78;;;1.55;90.10
3960;BME280;1994;48.640;8.894;2022-12-15T11:40:39;94994.19;;;1.48;91.03
3960;BME280;1994;48.640;8.894;2022-12-15T11:46:23;94989.06;;;1.48;90.80
3960;BME280;1994;48.640;8.894;2022-12-15T11:52:08;94972.84;;;1.67;91.01
3960;BME280;1994;48.640;8.894;2022-12-15T11:54:51;94953.03;;;1.69;90.69
3960;BME280;1994;48.640;8.894;2022-12-15T11:58:03;94948.88;;;1.68;90.31
3960;BME280;1994;48.640;8.894;2022-12-15T12:00:42;94950.38;;;1.82;90.25
3960;BME280;1994;48.640;8.894;2022-12-15T12:03:40;94958.59;;;1.84;90.10
3960;BME280;1994;48.640;8.894;2022-12-15T12:09:35;94949.16;;;1.84;90.21
3960;BME280;1994;48.640;8.894;2022-12-15T12:15:34;94933.50;;;2.23;89.28
3960;BME280;1994;48.640;8.894;2022-12-15T12:18:18;94932.72;;;2.23;89.11
3960;BME280;1994;48.640;8.894;2022-12-15T12:21:09;94933.22;;;2.13;89.34
3960;BME280;1994;48.640;8.894;2022-12-15T12:24:29;94925.56;;;1.89;89.30
3960;BME280;1994;48.640;8.894;2022-12-15T12:26:58;94941.72;;;1.83;89.80
3960;BME280;1994;48.640;8.894;2022-12-15T12:29:38;94940.78;;;2.02;89.86
3960;BME280;1994;48.640;8.894;2022-12-15T12:43:14;94922.22;;;2.13;89.20
3960;BME280;1994;48.640;8.894;2022-12-15T12:45:56;94916.69;;;2.16;89.56
3960;BME280;1994;48.640;8.894;2022-12-15T12:48:40;94920.41;;;2.38;88.83
3960;BME280;1994;48.640;8.894;2022-12-15T12:51:24;94918.84;;;2.37;88.17
3960;BME280;1994;48.640;8.894;2022-12-15T12:53:52;94920.41;;;2.38;88.30
3960;BME280;1994;48.640;8.894;2022-12-15T12:59:04;94918.28;;;2.35;88.25
3960;BME280;1994;48.640;8.894;2022-12-15T13:01:35;94922.41;;;2.36;87.81
3960;BME280;1994;48.640;8.894;2022-12-15T13:04:11;94914.78;;;2.29;87.79
3960;BME280;1994;48.640;8.894;2022-12-15T13:17:38;94885.81;;;2.17;88.05
3960;BME280;1994;48.640;8.894;2022-12-15T13:20:26;94871.19;;;2.06;88.77
3960;BME280;1994;48.640;8.894;2022-12-15T13:22:53;94862.91;;;2.11;88.66
3960;BME280;1994;48.640;8.894;2022-12-15T13:46:52;94851.38;;;1.84;91.13
3960;BME280;1994;48.640;8.894;2022-12-15T13:49:33;94862.84;;;1.75;90.90
3960;BME280;1994;48.640;8.894;2022-12-15T13:52:20;94865.13;;;1.83;91.18
3960;BME280;1994;48.640;8.894;2022-12-15T13:54:59;94861.00;;;1.64;91.06
3960;BME280;1994;48.640;8.894;2022-12-15T13:57:26;94855.81;;;1.70;91.01
3960;BME280;1994;48.640;8.894;2022-12-15T14:00:05;94841.59;;;1.81;90.89
3960;BME280;1994;48.640;8.894;2022-12-15T14:02:34;94846.41;;;1.71;91.35
3960;BME280;1994;48.640;8.894;2022-12-15T14:05:12;94853.84;;;1.72;91.43
3960;BME280;1994;48.640;8.894;2022-12-15T14:07:46;94847.22;;;1.65;92.23
3960;BME280;1994;48.640;8.894;2022-12-15T14:12:44;94858.69;;;1.56;92.74
3960;BME280;1994;48.640;8.894;2022-12-15T14:15:14;94851.63;;;1.58;92.33
3960;BME280;1994;48.640;8.894;2022-12-15T14:17:45;94859.53;;;1.50;92.66
3960;BME280;1994;48.640;8.894;2022-12-15T14:20:23;94851.19;;;1.61;93.01
3960;BME280;1994;48.640;8.894;2022-12-15T14:22:49;94856.84;;;1.63;92.78
3960;BME280;1994;48.640;8.894;2022-12-15T14:25:26;94849.31;;;1.50;92.68
3960;BME280;1994;48.640;8.894;2022-12-15T14:27:54;94850.81;;;1.57;92.05
3960;BME280;1994;48.640;8.894;2022-12-15T14:30:29;94859.63;;;1.37;92.48
3960;BME280;1994;48.640;8.894;2022-12-15T14:33:13;94868.34;;;1.23;93.17
3960;BME280;1994;48.640;8.894;2022-12-15T14:35:47;94854.66;;;1.17;93.23
3960;BME280;1994;48.640;8.894;2022-12-15T14:38:19;94852.72;;;1.13;93.32
3960;BME280;1994;48.640;8.894;2022-12-15T14:40:49;94848.28;;;1.33;93.20
3960;BME280;1994;48.640;8.894;2022-12-15T14:43:26;94845.88;;;1.38;93.25
3960;BME280;1994;48.640;8.894;2022-12-15T14:46:05;94835.31;;;1.34;93.49
3960;BME280;1994;48.640;8.894;2022-12-15T14:48:36;94833.69;;;1.40;93.51
3960;BME280;1994;48.640;8.894;2022-12-15T14:51:04;94836.41;;;1.45;93.42
3960;BME280;1994;48.640;8.894;2022-12-15T14:53:36;94836.41;;;1.45;93.93
3960;BME280;1994;48.640;8.894;2022-12-15T14:59:18;94838.03;;;1.39;94.10
3960;BME280;1994;48.640;8.894;2022-12-15T15:02:18;94830.63;;;1.31;94.16
3960;BME280;1994;48.640;8.894;2022-12-15T15:04:59;94828.25;;;1.30;94.67
3960;BME280;1994;48.640;8.894;2022-12-15T15:07:27;94832.97;;;1.33;94.34
3960;BME280;1994;48.640;8.894;2022-12-15T15:09:54;94838.47;;;1.30;94.33
3960;BME280;1994;48.640;8.894;2022-12-15T15:12:23;94838.47;;;1.30;94.32
3960;BME280;1994;48.640;8.894;2022-12-15T15:15:07;94854.56;;;1.30;94.68
3960;BME280;1994;48.640;8.894;2022-12-15T15:17:51;94842.13;;;1.16;94.70
3960;BME280;1994;48.640;8.894;2022-12-15T15:20:29;94842.84;;;1.23;94.63
3960;BME280;1994;48.640;8.894;2022-12-15T15:23:17;94852.69;;;1.19;94.74
3960;BME280;1994;48.640;8.894;2022-12-15T15:28:43;94865.63;;;1.18;94.71
3960;BME280;1994;48.640;8.894;2022-12-15T15:33:50;94867.28;;;1.06;94.79
3960;BME280;1994;48.640;8.894;2022-12-15T15:36:16;94867.28;;;1.06;95.21
3960;BME280;1994;48.640;8.894;2022-12-15T15:38:42;94864.94;;;1.04;94.90
3960;BME280;1994;48.640;8.894;2022-12-15T15:41:20;94874.94;;;1.06;95.00
3960;BME280;1994;48.640;8.894;2022-12-15T15:43:51;94877.13;;;1.02;95.17
3960;BME280;1994;48.640;8.894;2022-12-15T15:46:27;94874.75;;;1.01;95.55
3960;BME280;1994;48.640;8.894;2022-12-15T15:48:57;94863.00;;;1.00;95.43
3960;BME280;1994;48.640;8.894;2022-12-15T15:51:27;94869.25;;;1.04;95.48
3960;BME280;1994;48.640;8.894;2022-12-15T15:54:09;94873.19;;;1.00;95.82
3960;BME280;1994;48.640;8.894;2022-12-15T15:56:37;94866.78;;;0.91;96.09
3960;BME280;1994;48.640;8.894;2022-12-15T15:59:16;94862.28;;;0.93;96.38
3960;BME280;1994;48.640;8.894;2022-12-15T16:01:44;94865.38;;;0.95;96.46
3960;BME280;1994;48.640;8.894;2022-12-15T16:04:11;94855.97;;;0.95;96.39
3960;BME280;1994;48.640;8.894;2022-12-15T16:06:37;94857.91;;;1.00;96.21
3960;BME280;1994;48.640;8.894;2022-12-15T16:09:04;94855.75;;;0.97;96.52
3960;BME280;1994;48.640;8.894;2022-12-15T16:11:32;94845.00;;;0.95;96.57
3960;BME280;1994;48.640;8.894;2022-12-15T16:13:59;94859.72;;;0.93;96.26
3960;BME280;1994;48.640;8.894;2022-12-15T16:16:30;94856.78;;;0.89;96.69
3960;BME280;1994;48.640;8.894;2022-12-15T16:18:56;94856.19;;;0.94;96.64
3960;BME280;1994;48.640;8.894;2022-12-15T16:21:24;94862.28;;;0.93;96.47
3960;BME280;1994;48.640;8.894;2022-12-15T16:23:52;94859.13;;;0.91;96.79
3960;BME280;1994;48.640;8.894;2022-12-15T16:26:30;94857.97;;;0.87;96.92
3960;BME280;1994;48.640;8.894;2022-12-15T16:28:57;94857.41;;;0.85;97.18
3960;BME280;1994;48.640;8.894;2022-12-15T16:31:34;94848.16;;;0.90;97.35
3960;BME280;1994;48.640;8.894;2022-12-15T16:34:02;94857.97;;;0.87;97.09
3960;BME280;1994;48.640;8.894;2022-12-15T16:36:28;94862.56;;;1.09;99.84
3960;BME280;1994;48.640;8.894;2022-12-15T16:38:54;94867.06;;;1.38;99.95
3960;BME280;1994;48.640;8.894;2022-12-15T16:41:20;94854.81;;;1.47;99.12
3960;BME280;1994;48.640;8.894;2022-12-15T16:43:48;94862.53;;;1.40;97.70
3960;BME280;1994;48.640;8.894;2022-12-15T16:46:15;94862.84;;;1.26;96.26
3960;BME280;1994;48.640;8.894;2022-12-15T16:48:42;94867.28;;;1.06;96.23
3960;BME280;1994;48.640;8.894;2022-12-15T16:51:24;94853.38;;;1.02;96.54
3960;BME280;1994;48.640;8.894;2022-12-15T16:53:51;94852.06;;;0.93;96.31
3960;BME280;1994;48.640;8.894;2022-12-15T16:56:16;94854.75;;;0.98;96.69
3960;BME280;1994;48.640;8.894;2022-12-15T16:58:42;94850.47;;;0.98;96.49
3960;BME280;1994;48.640;8.894;2022-12-15T17:01:10;94836.34;;;0.96;96.72
3960;BME280;1994;48.640;8.894;2022-12-15T17:03:35;94828.72;;;0.96;96.81
3960;BME280;1994;48.640;8.894;2022-12-15T17:06:05;94834.97;;;1.00;96.69
3960;BME280;1994;48.640;8.894;2022-12-15T17:08:41;94823.03;;;0.94;96.63
3960;BME280;1994;48.640;8.894;2022-12-15T17:11:21;94821.06;;;0.96;96.57
3960;BME280;1994;48.640;8.894;2022-12-15T17:13:50;94819.50;;;0.95;96.43
3960;BME280;1994;48.640;8.894;2022-12-15T17:16:17;94819.50;;;0.95;96.73
3960;BME280;1994;48.640;8.894;2022-12-15T17:18:44;94819.91;;;0.92;96.69
3960;BME280;1994;48.640;8.894;2022-12-15T17:21:28;94815.56;;;0.99;96.41
3960;BME280;1994;48.640;8.894;2022-12-15T17:23:58;94812.03;;;1.00;96.58
3960;BME280;1994;48.640;8.894;2022-12-15T17:26:31;94803.78;;;0.98;96.37
3960;BME280;1994;48.640;8.894;2022-12-15T17:29:01;94810.28;;;0.94;96.48
3960;BME280;1994;48.640;8.894;2022-12-15T17:31:30;94805.38;;;0.99;96.43
3960;BME280;1994;48.640;8.894;2022-12-15T17:33:56;94798.69;;;0.98;96.41
3960;BME280;1994;48.640;8.894;2022-12-15T17:36:26;94803.06;;;0.91;96.51
3960;BME280;1994;48.640;8.894;2022-12-15T17:38:58;94798.69;;;0.98;96.55
3960;BME280;1994;48.640;8.894;2022-12-15T17:41:25;94802.22;;;0.97;96.30
3960;BME280;1994;48.640;8.894;2022-12-15T17:43:52;94796.56;;;0.95;96.79
3960;BME280;1994;48.640;8.894;2022-12-15T17:46:17;94802.66;;;0.94;96.70
3960;BME280;1994;48.640;8.894;2022-12-15T17:48:43;94802.06;;;0.92;96.72
3960;BME280;1994;48.640;8.894;2022-12-15T17:51:17;94802.66;;;0.94;96.68
3960;BME280;1994;48.640;8.894;2022-12-15T17:53:46;94804.00;;;0.96;96.73
3960;BME280;1994;48.640;8.894;2022-12-15T17:56:15;94806.91;;;1.00;96.55
3960;BME280;1994;48.640;8.894;2022-12-15T17:58:42;94807.75;;;0.94;96.21
3960;BME280;1994;48.640;8.894;2022-12-15T18:01:12;94798.13;;;0.96;96.48
3960;BME280;1994;48.640;8.894;2022-12-15T18:03:37;94799.09;;;0.95;96.22
3960;BME280;1994;48.640;8.894;2022-12-15T18:06:05;94796.00;;;0.93;96.16
3960;BME280;1994;48.640;8.894;2022-12-15T18:08:35;94801.22;;;0.98;96.20
3960;BME280;1994;48.640;8.894;2022-12-15T18:11:01;94800.66;;;0.96;96.29
3960;BME280;1994;48.640;8.894;2022-12-15T18:13:30;94805.94;;;1.01;96.13
3960;BME280;1994;48.640;8.894;2022-12-15T18:15:57;94805.38;;;0.99;95.92
3960;BME280;1994;48.640;8.894;2022-12-15T18:18:24;94803.78;;;0.98;96.17
3960;BME280;1994;48.640;8.894;2022-12-15T18:20:55;94792.38;;;1.00;96.04
3960;BME280;1994;48.640;8.894;2022-12-15T18:23:28;94786.53;;;1.00;95.74
3960;BME280;1994;48.640;8.894;2022-12-15T18:25:57;94795.94;;;0.99;95.53
3960;BME280;1994;48.640;8.894;2022-12-15T18:28:33;94795.16;;;0.99;95.87
3960;BME280;1994;48.640;8.894;2022-12-15T18:31:23;94794.00;;;0.95;95.87
3960;BME280;1994;48.640;8.894;2022-12-15T18:33:53;94796.72;;;1.00;95.35
3960;BME280;1994;48.640;8.894;2022-12-15T18:36:21;94792.03;;;0.97;95.17
3960;BME280;1994;48.640;8.894;2022-12-15T18:38:47;94782.66;;;0.91;95.57
3960;BME280;1994;48.640;8.894;2022-12-15T18:41:16;94782.66;;;0.91;95.22
3960;BME280;1994;48.640;8.894;2022-12-15T18:43:44;94793.44;;;0.93;95.46
3960;BME280;1994;48.640;8.894;2022-12-15T18:46:15;94787.75;;;0.91;95.24
3960;BME280;1994;48.640;8.894;2022-12-15T18:48:44;94789.00;;;0.82;95.04
3960;BME280;1994;48.640;8.894;2022-12-15T18:51:20;94787.81;;;0.84;95.20
3960;BME280;1994;48.640;8.894;2022-12-15T18:53:47;94790.56;;;0.83;95.32
3960;BME280;1994;48.640;8.894;2022-12-15T18:56:15;94790.38;;;0.84;94.87
3960;BME280;1994;48.640;8.894;2022-12-15T18:58:43;94784.47;;;0.84;94.83
3960;BME280;1994;48.640;8.894;2022-12-15T19:01:08;94787.03;;;0.84;94.98
3960;BME280;1994;48.640;8.894;2022-12-15T19:03:36;94775.28;;;0.83;94.77
3960;BME280;1994;48.640;8.894;2022-12-15T19:08:36;94776.41;;;0.87;94.75
3960;BME280;1994;48.640;8.894;2022-12-15T19:11:15;94769.03;;;0.79;94.93
3960;BME280;1994;48.640;8.894;2022-12-15T19:13:44;94752.91;;;0.85;94.75
3960;BME280;1994;48.640;8.894;2022-12-15T19:16:18;94755.72;;;0.77;94.90
3960;BME280;1994;48.640;8.894;2022-12-15T19:18:44;94743.94;;;0.76;94.83
3960;BME280;1994;48.640;8.894;2022-12-15T19:21:34;94741.25;;;0.71;94.95
3960;BME280;1994;48.640;8.894;2022-12-15T19:24:28;94733.19;;;0.74;95.08
3960;BME280;1994;48.640;8.894;2022-12-15T19:27:26;94732.63;;;0.72;94.55
3960;BME280;1994;48.640;8.894;2022-12-15T19:29:53;94734.94;;;0.73;94.70
3960;BME280;1994;48.640;8.894;2022-12-15T19:32:19;94738.91;;;0.69;94.57
3960;BME280;1994;48.640;8.894;2022-12-15T19:34:45;94740.25;;;0.72;94.48
3960;BME280;1994;48.640;8.894;2022-12-15T19:37:25;94736.56;;;0.68;95.01
3960;BME280;1994;48.640;8.894;2022-12-15T19:39:52;94741.66;;;0.68;94.43
3960;BME280;1994;48.640;8.894;2022-12-15T19:42:33;94747.97;;;0.59;94.65
3960;BME280;1994;48.640;8.894;2022-12-15T19:45:11;94738.97;;;0.56;94.32
3960;BME280;1994;48.640;8.894;2022-12-15T19:47:38;94743.31;;;0.56;94.26
3960;BME280;1994;48.640;8.894;2022-12-15T19:50:04;94747.97;;;0.59;94.38
3960;BME280;1994;48.640;8.894;2022-12-15T19:52:30;94746.03;;;0.61;94.46
3960;BME280;1994;48.640;8.894;2022-12-15T19:54:55;94753.16;;;0.46;94.24
3960;BME280;1994;48.640;8.894;2022-12-15T19:57:21;94751.16;;;0.48;94.30
3960;BME280;1994;48.640;8.894;2022-12-15T19:59:47;94754.06;;;0.58;94.25
3960;BME280;1994;48.640;8.894;2022-12-15T20:02:20;94758.22;;;0.52;93.79
3960;BME280;1994;48.640;8.894;2022-12-15T20:04:47;94757.22;;;0.53;93.89